Latest Weather Observations for Bankstown

IDN60801

Issued at 10:33 am EDT Wednesday 4 March 2015 (issued every 30 minutes, with the page automatically refreshed every 10 minutes)

About weather observations | Map of weather stations | Latest weather observations for NSW | Other Formats
Station Details ID: 066137 Name: BANKSTOWN AIRPORT AWS Lat: -33.92 Lon: 150.99 Height: 6.5 m
Data from the previous 72 hours. | See also: Recent months at Bankstown
Date/Time
EDT
Temp
°C
App
Temp
°C
Dew
Point
Rel
Hum
%
Delta-T
°C
Wind Press
QNH
hPa
Press
MSL
hPa
Rain
since 9 am
mm
Dir
 
Spd
km/h
Gust
km/h
Spd
kts
Gust
kts
04/10:30am 24.7 25.9 18.2 67 4.1 SW 9 13 5 7 1013.8 1013.8 0.0
04/10:00am 24.4 25.8 17.9 67 4.1 SSW 7 13 4 7 1013.6 1013.6 0.0
04/09:30am 23.5 24.2 17.0 67 4.0 SSE 9 20 5 11 1013.7 1013.7 0.0
04/09:00am 23.6 24.8 17.3 67 3.9 SSE 7 11 4 6 1013.6 1013.6 0.0
04/08:30am 22.5 23.7 16.8 70 3.5 SSW 6 9 3 5 1013.5 1013.5 0.0
04/08:00am 21.6 22.7 17.2 76 2.7 SW 7 9 4 5 1013.3 1013.3 0.0
04/07:30am 20.8 21.4 16.8 78 2.4 SW 9 9 5 5 1013.2 1013.2 0.0
04/07:00am 20.9 22.1 16.9 78 2.4 SW 6 7 3 4 1012.7 1012.7 0.0
04/06:30am 21.2 21.8 16.8 76 2.7 SSE 9 13 5 7 1012.6 1012.6 0.0
04/06:00am 21.4 21.6 16.8 75 2.8 SSE 11 17 6 9 1012.6 1012.6 0.0
04/05:30am 21.7 22.0 16.9 74 2.9 SE 11 15 6 8 1012.5 1012.5 0.0
04/05:00am 21.7 22.0 16.9 74 2.9 SE 11 15 6 8 1012.5 1012.5 0.0
04/04:30am 21.3 22.0 17.1 77 2.6 S 9 11 5 6 1012.6 1012.6 0.0
04/04:00am 21.3 22.4 17.1 77 2.6 SSW 7 9 4 5 1012.6 1012.6 0.0
04/03:30am 21.3 22.3 16.9 76 2.7 S 7 7 4 4 1012.8 1012.8 0.0
04/03:00am 21.3 21.9 16.9 76 2.7 S 9 9 5 5 1013.1 1013.1 0.0
04/02:30am 21.8 22.1 17.0 74 2.9 SSE 11 13 6 7 1013.4 1013.4 0.0
04/02:00am 22.0 22.0 17.2 74 2.9 SSE 13 15 7 8 1013.6 1013.6 0.0
04/01:30am 21.5 22.9 17.3 77 2.6 SSE 6 7 3 4 1013.9 1013.9 0.0
04/01:00am 21.3 22.4 16.7 75 2.8 SSE 6 9 3 5 1014.0 1014.0 0.0
04/12:30am 22.1 22.8 17.0 73 3.1 SSE 9 11 5 6 1014.1 1014.1 0.0
04/12:00am 21.9 22.7 17.3 75 2.8 SSE 9 11 5 6 1014.2 1014.2 0.0
 
Date/Time
EDT
Temp
°C
App
Temp
°C
Dew
Point
Rel
Hum
%
Delta-T
°C
Wind Press
QNH
hPa
Press
MSL
hPa
Rain
since 9 am
mm
Dir
 
Spd
km/h
Gust
km/h
Spd
kts
Gust
kts
03/11:30pm 22.1 23.1 16.8 72 3.2 SW 7 9 4 5 1014.5 1014.5 0.0
03/11:00pm 23.4 24.6 16.9 67 4.0 ENE 6 7 3 4 1014.5 1014.5 0.0
03/10:30pm 23.3 25.6 16.8 67 4.0 CALM 0 6 0 3 1014.6 1014.6 0.0
03/10:00pm 23.3 24.4 16.6 66 4.1 NE 6 9 3 5 1014.7 1014.7 0.0
03/09:30pm 23.5 24.5 16.8 66 4.1 NE 7 11 4 6 1014.7 1014.7 0.0
03/09:00pm 23.6 24.0 16.4 64 4.4 NE 9 13 5 7 1014.4 1014.4 0.0
03/08:30pm 23.5 23.8 16.1 63 4.5 NE 9 13 5 7 1014.2 1014.2 0.0
03/08:00pm 23.6 24.3 15.6 61 4.8 NNE 6 9 3 5 1013.8 1013.8 0.0
03/07:30pm 23.7 23.3 15.2 59 5.1 ENE 11 19 6 10 1013.4 1013.4 0.0
03/07:00pm 23.9 22.2 14.6 56 5.5 ENE 17 28 9 15 1013.2 1013.2 0.0
03/06:30pm 23.9 23.0 14.9 57 5.4 ENE 13 19 7 10 1013.2 1013.2 0.0
03/06:00pm 23.9 21.9 14.9 57 5.4 E 19 24 10 13 1012.8 1012.8 0.0
03/05:30pm 24.2 22.6 14.9 56 5.5 E 17 26 9 14 1012.7 1012.7 0.0
03/05:00pm 24.4 22.0 13.9 52 6.2 ENE 19 30 10 16 1012.5 1012.5 0.0
03/04:30pm 25.1 22.7 14.3 51 6.4 ENE 20 28 11 15 1012.5 1012.5 0.0
03/04:00pm 25.9 22.9 13.7 47 7.2 E 22 28 12 15 1012.5 1012.5 0.0
03/03:30pm 27.0 24.1 14.1 45 7.7 ENE 22 30 12 16 1012.4 1012.4 0.0
03/03:00pm 28.0 25.4 13.9 42 8.4 ENE 20 28 11 15 1012.3 1012.3 0.0
03/02:30pm 29.5 28.2 13.7 38 9.5 NE 13 22 7 12 1012.7 1012.7 0.0
03/02:00pm 29.2 28.2 12.2 35 9.9 E 9 19 5 10 1012.8 1012.8 0.0
03/01:30pm 28.6 27.8 12.9 38 9.2 ENE 9 13 5 7 1013.2 1013.2 0.0
03/01:00pm 27.8 26.5 11.4 36 9.4 NNE 9 17 5 9 1013.7 1013.7 0.0
03/12:30pm 27.1 25.8 11.2 37 9.0 N 9 13 5 7 1014.3 1014.3 0.0
03/12:00pm 27.2 26.4 12.8 41 8.4 NW 9 17 5 9 1015.2 1015.2 0.0
03/11:30am 25.5 22.9 12.0 43 7.7 N 17 22 9 12 1015.4 1015.4 0.0
03/11:00am 24.6 22.2 11.5 44 7.4 N 15 24 8 13 1015.8 1015.8 0.0
03/10:30am 23.9 21.3 11.9 47 6.8 NNW 17 28 9 15 1016.0 1016.0 0.0
03/10:00am 23.6 22.0 12.9 51 6.2 NNW 13 22 7 12 1016.2 1016.2 0.0
03/09:30am 21.5 20.5 13.4 60 4.7 NW 11 19 6 10 1016.4 1016.4 0.0
03/09:00am 20.0 20.0 14.1 69 3.4 WNW 7 11 4 6 1016.2 1016.2 0.4
03/08:30am 18.6 18.7 14.5 77 2.4 NW 7 9 4 5 1015.9 1015.9 0.4
03/08:00am 17.3 19.0 15.1 87 1.3 CALM 0 0 0 0 1015.8 1015.8 0.4
03/07:30am 15.7 16.9 13.7 88 1.1 CALM 0 0 0 0 1015.7 1015.7 0.4
03/07:00am 14.9 15.8 12.9 88 1.1 CALM 0 0 0 0 1015.5 1015.5 0.4
03/06:30am 14.6 15.4 12.5 87 1.1 CALM 0 0 0 0 1015.2 1015.2 0.4
03/06:00am 15.3 16.3 13.3 88 1.1 CALM 0 0 0 0 1015.1 1015.1 0.4
03/05:30am 15.5 16.5 13.3 87 1.2 CALM 0 0 0 0 1015.2 1015.2 0.4
03/05:00am 15.3 16.1 12.6 84 1.5 CALM 0 0 0 0 1015.1 1015.1 0.4
03/04:30am 15.6 16.4 12.7 83 1.6 CALM 0 0 0 0 1015.2 1015.2 0.4
03/04:00am 15.5 16.3 12.4 82 1.7 CALM 0 0 0 0 1015.2 1015.2 0.4
03/03:30am 16.1 17.0 13.0 82 1.7 CALM 0 0 0 0 1015.5 1015.5 0.4
03/03:00am 16.3 17.2 12.8 80 1.9 CALM 0 0 0 0 1015.8 1015.8 0.4
03/02:30am 17.0 18.0 13.1 78 2.2 CALM 0 0 0 0 1016.1 1016.1 0.4
03/02:00am 17.5 18.6 13.6 78 2.2 CALM 0 0 0 0 1016.6 1016.6 0.4
03/01:30am 18.1 19.3 13.8 76 2.4 CALM 0 0 0 0 1017.2 1017.2 0.4
03/01:00am 18.7 20.1 14.4 76 2.5 CALM 0 0 0 0 1017.4 1017.4 0.4
03/12:30am 18.5 19.9 14.4 77 2.4 CALM 0 0 0 0 1017.8 1017.8 0.4
03/12:00am 18.5 19.8 14.2 76 2.5 CALM 0 0 0 0 1018.0 1018.0 0.4
 
Date/Time
EDT
Temp
°C
App
Temp
°C
Dew
Point
Rel
Hum
%
Delta-T
°C
Wind Press
QNH
hPa
Press
MSL
hPa
Rain
since 9 am
mm
Dir
 
Spd
km/h
Gust
km/h
Spd
kts
Gust
kts
02/11:30pm 18.4 19.4 13.3 72 2.9 CALM 0 0 0 0 1018.0 1018.0 0.4
02/11:00pm 18.3 19.4 13.4 73 2.8 CALM 0 0 0 0 1017.8 1017.8 0.4
02/10:30pm 18.1 18.4 12.1 68 3.3 NNE 2 6 1 3 1017.9 1017.9 0.4
02/10:00pm 19.2 18.7 12.0 63 4.0 NNE 6 7 3 4 1017.8 1017.8 0.4
02/09:30pm 19.4 18.5 11.2 59 4.5 NNE 7 7 4 4 1017.8 1017.8 0.4
02/09:00pm 20.5 19.2 11.2 55 5.1 NE 9 9 5 5 1017.7 1017.7 0.4
02/08:30pm 21.2 20.2 11.0 52 5.6 NNE 7 11 4 6 1017.8 1017.8 0.4
02/08:00pm 21.5 20.5 10.9 51 5.8 NE 7 11 4 6 1017.7 1017.7 0.4
02/07:30pm 22.0 20.2 10.8 49 6.2 NE 11 17 6 9 1017.2 1017.2 0.4
02/07:00pm 22.5 20.2 10.6 47 6.5 ENE 13 17 7 9 1017.1 1017.1 0.4
02/06:30pm 22.7 20.2 11.1 48 6.4 ENE 15 20 8 11 1016.9 1016.9 0.4
02/06:00pm 22.8 20.3 11.2 48 6.4 E 15 20 8 11 1016.8 1016.8 0.4
02/05:30pm 22.9 20.5 11.3 48 6.5 E 15 24 8 13 1016.8 1016.8 0.4
02/05:00pm 23.1 19.9 11.2 47 6.6 E 19 30 10 16 1016.7 1016.7 0.4
02/04:30pm 23.1 20.1 12.7 52 6.0 ESE 20 28 11 15 1016.6 1016.6 0.4
02/04:00pm 23.5 20.7 13.1 52 6.0 ESE 20 28 11 15 1016.8 1016.8 0.4
02/03:30pm 23.2 20.6 13.7 55 5.5 ESE 20 28 11 15 1017.2 1017.2 0.4
02/03:00pm 23.4 20.4 13.8 54 5.6 ESE 22 30 12 16 1017.4 1017.4 0.4
02/02:30pm 23.3 20.8 13.5 54 5.7 ESE 19 28 10 15 1017.6 1017.6 0.4
02/02:00pm 23.3 20.8 13.5 54 5.7 ESE 19 26 10 14 1017.9 1017.9 0.4
02/01:30pm 22.9 20.6 13.1 54 5.6 SE 17 24 9 13 1018.5 1018.5 0.2
02/01:00pm 23.1 20.3 12.7 52 5.9 SE 19 26 10 14 1018.7 1018.7 0.0
02/12:30pm 22.8 19.8 12.4 52 5.9 SE 20 26 11 14 1018.9 1018.9 0.0
02/12:00pm 22.9 20.1 12.5 52 5.9 SE 19 28 10 15 1019.1 1019.1 0.0
02/11:30am 23.0 20.0 12.0 50 6.2 ESE 19 28 10 15 1019.2 1019.2 0.0
02/11:00am 23.1 21.0 12.4 51 6.1 SE 15 28 8 15 1019.1 1019.1 0.0
02/10:30am 22.4 19.8 12.1 52 5.8 SSE 17 24 9 13 1019.1 1019.1 0.0
02/10:00am 20.5 19.6 12.5 60 4.5 WSW 9 13 5 7 1019.2 1019.2 0.0
02/09:30am 19.5 18.4 11.8 61 4.3 S 9 11 5 6 1019.1 1019.1 0.0
02/09:00am 18.8 17.2 11.4 62 4.0 SW 11 15 6 8 1019.1 1019.1 2.4
02/08:30am 18.1 15.9 10.7 62 4.0 WSW 13 17 7 9 1018.9 1018.9 2.4
02/08:00am 17.8 15.6 10.9 64 3.7 SW 13 17 7 9 1018.8 1018.8 2.4
02/07:30am 17.3 15.5 10.7 65 3.5 WSW 11 15 6 8 1018.5 1018.5 2.4
02/07:00am 17.0 15.8 10.4 65 3.5 SW 7 15 4 8 1018.0 1018.0 2.4
02/06:30am 16.9 14.9 10.3 65 3.5 SW 11 15 6 8 1017.7 1017.7 2.4
02/06:00am 17.1 15.5 10.2 64 3.6 SW 9 13 5 7 1017.4 1017.4 2.4
02/05:30am 17.7 15.4 10.3 62 3.9 SW 13 17 7 9 1017.4 1017.4 2.4
02/05:00am 18.1 15.8 10.5 61 4.1 SW 13 19 7 10 1017.0 1017.0 2.4
02/04:30am 18.6 16.8 10.9 61 4.2 SSW 11 17 6 9 1016.8 1016.8 2.4
02/04:00am 18.7 16.6 11.3 62 4.0 SSW 13 17 7 9 1016.7 1016.7 2.4
02/03:30am 19.1 17.1 11.4 61 4.2 SW 13 17 7 9 1017.1 1017.1 2.4
02/03:00am 19.5 17.5 11.5 60 4.4 SW 13 19 7 10 1017.2 1017.2 2.4
02/02:30am 19.7 17.9 12.0 61 4.3 SSW 13 17 7 9 1017.0 1017.0 2.4
02/02:00am 20.0 17.5 11.0 56 4.9 S 15 19 8 10 1017.0 1017.0 2.4
02/01:30am 20.5 17.6 10.9 54 5.3 SSE 17 28 9 15 1017.2 1017.2 2.4
02/01:00am 20.6 17.0 10.4 52 5.5 SSE 20 30 11 16 1017.1 1017.1 2.4
02/12:30am 20.7 16.7 10.5 52 5.5 SSE 22 33 12 18 1017.3 1017.3 2.4
02/12:00am 21.0 18.1 12.2 57 4.9 SSE 19 26 10 14 1017.2 1017.2 2.4
 
Date/Time
EDT
Temp
°C
App
Temp
°C
Dew
Point
Rel
Hum
%
Delta-T
°C
Wind Press
QNH
hPa
Press
MSL
hPa
Rain
since 9 am
mm
Dir
 
Spd
km/h
Gust
km/h
Spd
kts
Gust
kts
01/11:30pm 20.8 17.7 12.2 58 4.8 S 20 30 11 16 1016.9 1016.9 2.4
01/11:00pm 21.0 18.4 11.9 56 5.1 S 17 24 9 13 1016.8 1016.8 2.4
01/10:30pm 21.2 17.9 11.5 54 5.4 SSE 20 32 11 17 1016.4 1016.4 2.4
01/10:00pm 21.2 17.7 12.1 56 5.1 S 22 32 12 17 1015.8 1015.8 2.4
01/09:30pm 21.5 16.7 12.9 58 4.9 SSE 30 43 16 23 1015.3 1015.3 2.4
01/09:00pm 21.3 18.0 14.0 63 4.2 S 24 39 13 21 1014.6 1014.6 2.4
01/08:30pm 21.2 18.9 14.6 66 3.9 S 20 30 11 16 1013.8 1013.8 2.4
01/08:00pm 21.0 17.8 14.2 65 4.0 S 24 41 13 22 1012.8 1012.8 2.4
01/07:31pm 20.8 17.4 15.8 73 3.0 S 28 46 15 25 1011.7 1011.7 2.4
01/07:30pm 20.6 17.6 15.8 74 2.9 S 26 39 14 21 1011.6 1011.6 2.4
01/07:00pm 20.9 17.2 15.9 73 3.0 SSE 30 39 16 21 1010.8 1010.8 2.4
01/06:30pm 20.9 17.4 16.5 76 2.7 SSE 30 50 16 27 1010.3 1010.3 2.4
01/06:12pm 21.4 18.6 17.2 77 2.6 SSE 28 46 15 25 1009.8 1009.8 2.4
01/06:00pm 21.8 20.5 18.2 80 2.2 SSE 22 33 12 18 1009.2 1009.2 2.4
01/05:30pm 22.0 22.1 19.2 84 1.8 S 17 24 9 13 1007.7 1007.7 2.4
01/05:12pm 21.6 18.3 18.4 82 2.0 SSE 33 46 18 25 1006.7 1006.7 2.0
01/05:00pm 22.0 18.6 18.2 79 2.4 SSW 33 48 18 26 1008.7 1008.7 1.4
01/04:56pm 22.2 18.2 18.4 79 2.4 SSW 37 63 20 34 1008.5 1008.5 1.4
01/04:44pm 22.3 18.4 18.7 80 2.3 S 37 56 20 30 1006.7 1006.7 1.4
01/04:39pm 22.6 19.4 19.4 82 2.0 SSE 35 48 19 26 1006.2 1006.2 1.4
01/04:30pm 22.9 21.3 20.1 84 1.8 SE 28 44 15 24 1004.9 1004.9 1.4
01/04:18pm 22.6 18.8 18.2 76 2.8 SE 35 50 19 27 1005.1 1005.1 0.8
01/04:00pm 25.3 23.8 19.4 70 3.8 SSE 26 41 14 22 1004.6 1004.6 0.0
01/03:57pm 24.9 22.3 19.5 72 3.5 SSE 32 50 17 27 1004.0 1004.0 0.0
01/03:48pm 24.1 19.1 19.2 74 3.1 SSE 44 63 24 34 1003.5 1003.5 0.0
01/03:38pm 25.5 21.5 16.6 58 5.5 SSW 33 78 18 42 1004.5 1004.5 0.0
01/03:36pm 26.4 23.9 15.1 49 6.8 WSW 22 78 12 42 1004.3 1004.3 0.0
01/03:34pm 31.1 30.7 15.1 38 9.8 WNW 11 69 6 37 1003.7 1003.7 0.0
01/03:30pm 34.7 34.5 13.5 28 12.9 NW 7 13 4 7 1002.6 1002.6 0.0
01/03:00pm 36.4 35.1 13.8 26 14.0 WNW 13 20 7 11 1002.2 1002.2 0.0
01/02:30pm 35.0 33.9 14.3 29 12.8 WNW 13 20 7 11 1003.0 1003.0 0.0
01/02:00pm 34.8 33.7 15.2 31 12.3 NW 15 24 8 13 1003.4 1003.4 0.0
01/01:30pm 35.2 33.6 15.0 30 12.6 W 17 32 9 17 1003.9 1003.9 0.0
01/01:00pm 34.9 34.3 15.7 31 12.1 NW 13 20 7 11 1004.4 1004.4 0.0
01/12:30pm 33.6 33.7 16.5 36 10.8 WNW 11 19 6 10 1005.0 1005.0 0.0
01/12:00pm 32.2 32.5 16.9 40 9.7 NW 11 17 6 9 1005.5 1005.5 0.0
01/11:30am 31.0 31.1 16.6 42 9.1 NW 11 17 6 9 1005.7 1005.7 0.0
01/11:00am 30.0 30.7 17.1 46 8.2 WNW 9 15 5 8 1005.9 1005.9 0.0

Other Formats:

Comma delimited format used in spreadsheet applications
http://www.bom.gov.au/fwo/IDN60801/IDN60801.94765.axf

JavaScript Object Notation format (JSON) in row-major order
http://www.bom.gov.au/fwo/IDN60801/IDN60801.94765.json